createdAt,value
2022-10-14T00:01:53.755Z,21.19
2022-10-14T00:03:55.138Z,21.19
2022-10-14T00:05:56.435Z,21.25
2022-10-14T00:07:57.694Z,21.29
2022-10-14T00:09:58.980Z,21.31
2022-10-14T00:12:00.410Z,21.30
2022-10-14T00:14:01.689Z,21.29
2022-10-14T00:16:02.987Z,21.29
2022-10-14T00:18:04.257Z,21.30
2022-10-14T00:20:06.216Z,21.30
2022-10-14T00:22:07.491Z,21.31
2022-10-14T00:24:08.801Z,21.33
2022-10-14T00:26:10.646Z,21.32
2022-10-14T00:28:11.922Z,21.31
2022-10-14T00:30:13.218Z,21.31
2022-10-14T00:32:14.783Z,21.33
2022-10-14T00:34:16.221Z,21.31
2022-10-14T00:36:17.598Z,21.30
2022-10-14T00:38:18.893Z,21.27
2022-10-14T00:40:20.162Z,21.25
2022-10-14T00:42:21.431Z,21.25
2022-10-14T00:44:22.764Z,21.22
2022-10-14T00:46:24.091Z,21.21
2022-10-14T00:48:25.370Z,21.22
2022-10-14T00:50:26.645Z,21.22
2022-10-14T00:52:27.966Z,21.22
2022-10-14T00:54:29.385Z,21.19
2022-10-14T00:56:30.868Z,21.19
2022-10-14T00:58:32.179Z,21.20
2022-10-14T01:00:33.505Z,21.20
2022-10-14T01:02:34.866Z,20.34
2022-10-14T01:04:36.175Z,21.11
2022-10-14T01:06:37.474Z,21.06
2022-10-14T01:08:38.927Z,21.02
2022-10-14T01:10:40.198Z,20.98
2022-10-14T01:12:41.463Z,20.98
2022-10-14T01:14:42.771Z,20.99
2022-10-14T01:16:44.318Z,20.98
2022-10-14T01:18:45.673Z,20.97
2022-10-14T01:20:46.966Z,20.98
2022-10-14T01:22:48.453Z,20.98
2022-10-14T01:24:49.727Z,20.98
2022-10-14T01:26:50.990Z,20.97
2022-10-14T01:28:52.347Z,20.95
2022-10-14T01:30:53.859Z,20.95
2022-10-14T01:32:55.137Z,20.92
2022-10-14T01:34:56.429Z,20.90
2022-10-14T01:36:57.767Z,20.89
2022-10-14T01:38:59.042Z,20.89
2022-10-14T01:41:00.303Z,20.89
2022-10-14T01:43:01.793Z,20.91
2022-10-14T01:45:03.074Z,20.92
2022-10-14T01:47:04.429Z,20.90
2022-10-14T01:49:05.710Z,20.90
2022-10-14T01:51:07.114Z,20.91
2022-10-14T01:53:08.455Z,20.92
2022-10-14T01:55:09.842Z,20.92
2022-10-14T01:57:11.280Z,20.92
2022-10-14T01:59:12.556Z,20.96
2022-10-14T02:01:13.880Z,20.98
2022-10-14T02:03:15.146Z,20.98
2022-10-14T02:05:16.452Z,20.26
2022-10-14T02:07:17.731Z,20.98
2022-10-14T02:09:18.998Z,20.98
2022-10-14T02:11:20.295Z,21.00
2022-10-14T02:13:21.589Z,21.00
2022-10-14T02:15:22.887Z,21.03
2022-10-14T02:17:24.371Z,21.04
2022-10-14T02:19:25.690Z,21.05
2022-10-14T02:21:27.001Z,21.05
2022-10-14T02:23:28.281Z,21.08
2022-10-14T02:25:29.615Z,21.11
2022-10-14T02:27:30.895Z,21.13
2022-10-14T02:29:32.222Z,21.12
2022-10-14T02:31:33.547Z,21.11
2022-10-14T02:33:34.818Z,21.09
2022-10-14T02:35:36.127Z,21.09
2022-10-14T02:37:37.406Z,21.07
2022-10-14T02:39:38.735Z,21.05
2022-10-14T02:41:40.012Z,21.04
2022-10-14T02:43:41.303Z,21.00
2022-10-14T02:45:42.753Z,20.97
2022-10-14T02:47:44.058Z,21.01
2022-10-14T02:49:45.323Z,21.01
2022-10-14T02:51:46.602Z,21.04
2022-10-14T02:53:47.887Z,21.06
2022-10-14T02:55:49.170Z,21.07
2022-10-14T02:57:50.525Z,21.06
2022-10-14T02:59:51.838Z,21.07
2022-10-14T03:01:53.152Z,21.08
2022-10-14T03:03:54.459Z,21.09
2022-10-14T03:05:55.730Z,21.12
2022-10-14T03:07:57.050Z,21.13
2022-10-14T03:09:58.561Z,21.16
2022-10-14T03:11:59.875Z,21.20
2022-10-14T03:14:01.152Z,21.14
2022-10-14T03:16:02.442Z,21.11
2022-10-14T03:18:03.716Z,21.08
2022-10-14T03:20:05.031Z,21.08
2022-10-14T03:22:06.290Z,21.09
2022-10-14T03:24:07.798Z,21.08
2022-10-14T03:26:13.672Z,21.08
2022-10-14T03:28:15.461Z,21.07
2022-10-14T03:30:16.802Z,21.06
2022-10-14T03:32:18.152Z,21.06
2022-10-14T03:34:19.431Z,21.07
2022-10-14T03:36:21.042Z,21.07
2022-10-14T03:38:22.370Z,21.07
2022-10-14T03:40:23.641Z,21.09
2022-10-14T03:42:24.928Z,21.19
2022-10-14T03:44:26.243Z,21.20
2022-10-14T03:46:28.561Z,21.18
2022-10-14T03:48:29.834Z,21.18
2022-10-14T03:50:31.578Z,21.17
2022-10-14T03:52:32.903Z,21.16
2022-10-14T03:54:34.196Z,21.16
2022-10-14T03:56:35.494Z,21.16
2022-10-14T03:58:36.802Z,21.15
2022-10-14T04:00:38.070Z,21.14
2022-10-14T04:02:39.404Z,21.14
2022-10-14T04:04:40.713Z,21.14
2022-10-14T04:06:41.998Z,21.13
2022-10-14T04:08:43.291Z,21.10
2022-10-14T04:10:44.558Z,21.08
2022-10-14T04:12:45.886Z,21.07
2022-10-14T04:14:47.215Z,21.06
2022-10-14T04:16:50.004Z,21.03
2022-10-14T04:18:51.515Z,20.99
2022-10-14T04:20:52.768Z,21.00
2022-10-14T04:22:54.042Z,20.99
2022-10-14T04:24:55.342Z,21.01
2022-10-14T04:26:56.664Z,21.01
2022-10-14T04:28:58.129Z,21.02
2022-10-14T04:30:59.450Z,21.03
2022-10-14T04:33:00.740Z,21.04
2022-10-14T04:35:02.201Z,21.07
2022-10-14T04:37:03.477Z,21.08
2022-10-14T04:39:04.788Z,21.10
2022-10-14T04:41:06.116Z,21.11
2022-10-14T04:43:07.439Z,21.09
2022-10-14T04:45:08.710Z,21.09
2022-10-14T04:47:10.323Z,21.08
2022-10-14T04:49:12.761Z,21.08
2022-10-14T04:51:14.187Z,21.08
2022-10-14T04:53:19.675Z,21.08
2022-10-14T04:55:23.134Z,20.30
2022-10-14T04:57:24.390Z,21.13
2022-10-14T04:59:25.691Z,21.14
2022-10-14T05:01:31.516Z,21.14
2022-10-14T05:03:35.074Z,21.13
2022-10-14T05:05:36.347Z,21.11
2022-10-14T05:07:37.679Z,21.12
2022-10-14T05:09:38.966Z,21.13
2022-10-14T05:11:40.423Z,21.15
2022-10-14T05:13:41.750Z,21.14
2022-10-14T05:15:43.083Z,21.12
2022-10-14T05:17:44.786Z,21.10
2022-10-14T05:19:46.219Z,21.08
2022-10-14T05:21:47.566Z,21.06
2022-10-14T05:23:48.818Z,21.06
2022-10-14T05:25:51.749Z,21.05
2022-10-14T05:27:53.761Z,21.06
2022-10-14T05:29:55.054Z,21.05
2022-10-14T05:31:56.626Z,21.06
2022-10-14T05:33:57.896Z,21.04
2022-10-14T05:35:59.901Z,21.04
2022-10-14T05:38:04.265Z,21.03
2022-10-14T05:40:05.762Z,21.02
2022-10-14T05:42:07.963Z,20.99
2022-10-14T05:44:09.255Z,20.96
2022-10-14T05:46:10.546Z,20.93
2022-10-14T05:48:11.804Z,20.91
2022-10-14T05:50:13.113Z,20.90
2022-10-14T05:52:14.446Z,20.88
2022-10-14T05:54:15.711Z,20.86
2022-10-14T05:56:16.987Z,20.88
2022-10-14T05:58:18.263Z,20.94
2022-10-14T06:00:24.660Z,20.95
2022-10-14T06:02:27.012Z,20.94
2022-10-14T06:04:28.290Z,20.94
2022-10-14T06:06:29.596Z,20.93
2022-10-14T06:08:30.883Z,20.93
2022-10-14T06:10:32.320Z,20.95
2022-10-14T06:12:33.638Z,20.96
2022-10-14T06:14:34.949Z,20.97
2022-10-14T06:16:36.216Z,20.96
2022-10-14T06:18:37.499Z,21.00
2022-10-14T06:20:38.813Z,21.01
2022-10-14T06:22:40.145Z,21.02
2022-10-14T06:24:41.472Z,21.02
2022-10-14T06:26:42.814Z,21.02
2022-10-14T06:28:44.191Z,21.00
2022-10-14T06:30:45.499Z,20.99
2022-10-14T06:32:46.789Z,20.98
2022-10-14T06:34:48.106Z,20.98
2022-10-14T06:36:49.407Z,20.98
2022-10-14T06:38:50.677Z,21.03
2022-10-14T06:40:52.019Z,21.06
2022-10-14T06:42:53.705Z,21.04
2022-10-14T06:44:55.095Z,21.02
2022-10-14T06:46:56.434Z,21.02
2022-10-14T06:48:57.706Z,21.03
2022-10-14T06:50:59.058Z,21.05
2022-10-14T06:53:00.544Z,21.04
2022-10-14T06:55:01.871Z,21.03
2022-10-14T06:57:03.244Z,21.04
2022-10-14T06:59:05.799Z,21.03
2022-10-14T07:01:07.120Z,20.97
2022-10-14T07:03:08.400Z,20.92
2022-10-14T07:05:09.684Z,20.94
2022-10-14T07:07:10.980Z,20.92
2022-10-14T07:09:12.267Z,20.90
2022-10-14T07:11:13.574Z,20.90
2022-10-14T07:13:14.859Z,20.90
2022-10-14T07:15:16.119Z,20.87
2022-10-14T07:17:17.441Z,20.86
2022-10-14T07:19:18.730Z,20.86
2022-10-14T07:21:20.079Z,20.88
2022-10-14T07:23:21.353Z,20.90
2022-10-14T07:25:22.636Z,20.93
2022-10-14T07:27:24.312Z,20.93
2022-10-14T07:29:25.896Z,20.96
2022-10-14T07:31:27.395Z,21.10
2022-10-14T07:33:29.116Z,21.31
2022-10-14T07:35:30.518Z,21.35
2022-10-14T07:37:31.835Z,21.22
2022-10-14T07:39:33.921Z,21.16
2022-10-14T07:41:35.195Z,21.03
2022-10-14T07:43:36.460Z,20.95
2022-10-14T07:45:37.755Z,20.87
2022-10-14T07:47:39.030Z,20.83
2022-10-14T07:49:40.357Z,20.79
2022-10-14T07:51:41.782Z,20.76
2022-10-14T07:53:43.136Z,20.74
2022-10-14T07:55:51.976Z,20.73
2022-10-14T07:57:53.256Z,20.73
2022-10-14T07:59:54.568Z,20.71
2022-10-14T08:01:56.806Z,20.70
2022-10-14T08:03:58.327Z,20.69
2022-10-14T08:06:00.073Z,20.67
2022-10-14T08:08:01.361Z,20.66
2022-10-14T08:10:02.951Z,20.66
2022-10-14T08:12:04.431Z,20.64
2022-10-14T08:14:05.703Z,20.63
2022-10-14T08:16:07.075Z,20.61
2022-10-14T08:18:08.626Z,19.75
2022-10-14T08:20:10.004Z,20.58
2022-10-14T08:22:11.565Z,20.56
2022-10-14T08:24:12.890Z,20.55
2022-10-14T08:26:14.138Z,20.52
2022-10-14T08:28:15.465Z,20.50
2022-10-14T08:30:16.771Z,20.48
2022-10-14T08:32:18.205Z,20.47
2022-10-14T08:34:24.375Z,20.46
2022-10-14T08:36:25.701Z,20.43
2022-10-14T08:38:27.647Z,20.43
2022-10-14T08:40:28.934Z,20.39
2022-10-14T08:42:30.355Z,20.38
2022-10-14T08:44:31.625Z,20.35
2022-10-14T08:46:33.127Z,20.34
2022-10-14T08:48:35.272Z,20.32
2022-10-14T08:50:36.543Z,20.31
2022-10-14T08:52:38.040Z,20.29
2022-10-14T08:54:39.393Z,20.27
2022-10-14T08:56:40.762Z,20.26
2022-10-14T08:58:42.073Z,20.25
2022-10-14T09:00:43.398Z,20.24
2022-10-14T09:02:44.688Z,20.21
2022-10-14T09:04:45.975Z,20.21
2022-10-14T09:06:47.298Z,20.19
2022-10-14T09:08:48.578Z,20.18
2022-10-14T09:10:49.852Z,20.18
2022-10-14T09:12:51.215Z,20.16
2022-10-14T09:14:52.475Z,20.16
2022-10-14T09:16:54.257Z,20.04
2022-10-14T09:18:55.731Z,19.75
2022-10-14T09:20:57.332Z,19.97
2022-10-14T09:22:58.633Z,20.16
2022-10-14T09:25:01.224Z,20.27
2022-10-14T09:27:02.528Z,20.34
2022-10-14T09:29:03.850Z,20.39
2022-10-14T09:31:05.156Z,20.41
2022-10-14T09:33:06.517Z,20.43
2022-10-14T09:35:07.819Z,20.43
2022-10-14T09:37:09.151Z,20.43
2022-10-14T09:39:10.448Z,20.42
2022-10-14T09:41:11.732Z,20.40
2022-10-14T09:43:13.013Z,20.38
2022-10-14T09:45:14.307Z,20.38
2022-10-14T09:47:19.036Z,20.41
2022-10-14T09:49:20.373Z,20.43
2022-10-14T09:51:21.659Z,20.46
2022-10-14T09:53:24.347Z,20.46
2022-10-14T09:55:25.663Z,20.45
2022-10-14T09:57:26.976Z,20.45
2022-10-14T09:59:28.259Z,20.46
2022-10-14T10:01:29.558Z,20.47
2022-10-14T10:03:32.623Z,20.48
2022-10-14T10:05:33.983Z,20.50
2022-10-14T10:07:35.365Z,20.62
2022-10-14T10:09:37.234Z,20.67
2022-10-14T10:11:38.766Z,20.52
2022-10-14T10:13:40.561Z,20.40
2022-10-14T10:15:41.947Z,20.36
2022-10-14T10:17:44.791Z,21.13
2022-10-14T10:19:46.147Z,21.72
2022-10-14T10:21:47.671Z,21.98
2022-10-14T10:23:48.948Z,22.01
2022-10-14T10:25:50.542Z,22.43
2022-10-14T10:27:52.699Z,22.65
2022-10-14T10:29:56.272Z,22.43
2022-10-14T10:32:01.762Z,23.28
2022-10-14T10:34:03.152Z,23.19
2022-10-14T10:36:04.478Z,23.02
2022-10-14T10:38:06.698Z,22.73
2022-10-14T10:40:07.994Z,23.16
2022-10-14T10:42:09.314Z,22.93
2022-10-14T10:44:10.630Z,22.42
2022-10-14T10:46:18.166Z,22.50
2022-10-14T10:48:21.099Z,22.50
2022-10-14T10:50:22.577Z,22.28
2022-10-14T10:52:24.198Z,22.09
2022-10-14T10:54:25.738Z,22.89
2022-10-14T10:56:27.027Z,23.45
2022-10-14T10:58:28.353Z,22.76
2022-10-14T11:02:33.307Z,22.45
2022-10-14T11:04:34.646Z,22.45
2022-10-14T11:06:54.885Z,22.72
2022-10-14T11:09:14.903Z,22.94
2022-10-14T11:11:36.474Z,22.81
2022-10-14T11:13:37.764Z,22.81
2022-10-14T11:15:39.023Z,22.64
2022-10-14T11:17:41.295Z,22.52
2022-10-14T11:19:42.851Z,22.48
2022-10-14T11:21:45.358Z,22.55
2022-10-14T11:23:46.649Z,22.48
2022-10-14T11:25:49.341Z,22.62
2022-10-14T11:27:52.104Z,22.48
2022-10-14T11:29:54.131Z,22.42
2022-10-14T11:31:55.491Z,22.36
2022-10-14T11:33:56.810Z,22.35
2022-10-14T11:35:58.282Z,22.61
2022-10-14T11:37:59.616Z,22.71
2022-10-14T11:40:00.865Z,22.61
2022-10-14T11:42:03.401Z,22.56
2022-10-14T11:44:04.739Z,22.42
2022-10-14T11:46:08.251Z,22.34
2022-10-14T11:48:09.528Z,22.48
2022-10-14T11:50:10.819Z,22.42
2022-10-14T11:52:12.144Z,22.33
2022-10-14T11:54:14.886Z,22.42
2022-10-14T11:56:16.178Z,22.34
2022-10-14T11:58:17.458Z,22.31
2022-10-14T12:00:37.513Z,22.39
2022-10-14T12:02:39.423Z,22.47
2022-10-14T12:04:40.767Z,22.39
2022-10-14T12:06:42.070Z,22.29
2022-10-14T12:08:43.948Z,22.21
2022-10-14T12:10:45.270Z,22.14
2022-10-14T12:12:46.558Z,22.07
2022-10-14T12:14:50.179Z,22.06
2022-10-14T12:16:51.464Z,22.09
2022-10-14T12:18:52.909Z,21.87
2022-10-14T12:20:54.214Z,21.65
2022-10-14T12:22:55.481Z,21.50
2022-10-14T12:24:56.836Z,22.12
2022-10-14T12:26:58.241Z,22.14
2022-10-14T12:29:01.485Z,22.14
2022-10-14T12:31:05.022Z,22.22
2022-10-14T12:33:09.313Z,22.27
2022-10-14T12:35:10.599Z,22.27
2022-10-14T12:37:11.865Z,21.50
2022-10-14T12:39:13.543Z,22.21
2022-10-14T12:41:14.943Z,22.26
2022-10-14T12:43:16.239Z,22.22
2022-10-14T12:45:17.566Z,21.65
2022-10-14T12:47:18.847Z,21.85
2022-10-14T12:49:20.133Z,22.00
2022-10-14T12:51:21.541Z,22.08
2022-10-14T12:53:22.806Z,22.11
2022-10-14T12:55:24.066Z,22.09
2022-10-14T12:57:25.340Z,22.08
2022-10-14T12:59:26.641Z,22.06
2022-10-14T13:01:29.029Z,22.06
2022-10-14T13:03:33.535Z,22.05
2022-10-14T13:05:35.014Z,22.03
2022-10-14T13:07:41.164Z,22.06
2022-10-14T13:09:43.234Z,22.12
2022-10-14T13:11:44.549Z,22.23
2022-10-14T13:13:49.006Z,22.29
2022-10-14T13:15:50.334Z,22.25
2022-10-14T13:17:51.643Z,22.23
2022-10-14T13:19:52.982Z,22.19
2022-10-14T13:21:54.457Z,22.11
2022-10-14T13:23:55.799Z,21.71
2022-10-14T13:25:57.065Z,21.38
2022-10-14T13:27:58.451Z,21.35
2022-10-14T13:29:59.778Z,21.60
2022-10-14T13:32:01.079Z,21.77
2022-10-14T13:34:02.357Z,21.86
2022-10-14T13:36:06.594Z,21.91
2022-10-14T13:38:07.902Z,21.95
2022-10-14T13:40:09.270Z,21.97
2022-10-14T13:42:10.595Z,22.22
2022-10-14T13:44:11.874Z,22.20
2022-10-14T13:46:13.192Z,22.22
2022-10-14T13:48:14.607Z,22.25
2022-10-14T13:50:15.884Z,22.24
2022-10-14T13:52:17.186Z,22.19
2022-10-14T13:54:18.520Z,22.13
2022-10-14T13:56:19.783Z,22.10
2022-10-14T13:58:21.135Z,22.12
2022-10-14T14:00:40.123Z,22.11
2022-10-14T14:02:41.771Z,22.09
2022-10-14T14:04:43.041Z,22.08
2022-10-14T14:07:00.447Z,22.20
2022-10-14T14:09:05.864Z,22.05
2022-10-14T14:11:23.104Z,22.02
2022-10-14T14:13:24.549Z,22.02
2022-10-14T14:15:25.913Z,21.89
2022-10-14T14:17:28.144Z,21.64
2022-10-14T14:19:29.631Z,21.53
2022-10-14T14:21:31.467Z,21.72
2022-10-14T14:23:34.857Z,21.89
2022-10-14T14:25:40.452Z,21.94
2022-10-14T14:27:48.967Z,21.94
2022-10-14T14:29:50.269Z,21.98
2022-10-14T14:32:05.980Z,21.97
2022-10-14T14:34:08.693Z,22.01
2022-10-14T14:36:18.180Z,22.03
2022-10-14T14:38:29.753Z,22.09
2022-10-14T14:40:31.328Z,22.07
2022-10-14T14:42:32.667Z,22.14
2022-10-14T14:44:33.988Z,22.20
2022-10-14T14:46:35.259Z,22.29
2022-10-14T14:48:36.586Z,22.26
2022-10-14T14:50:37.856Z,22.22
2022-10-14T14:52:39.927Z,22.20
2022-10-14T14:54:41.214Z,22.40
2022-10-14T14:56:42.513Z,22.28
2022-10-14T14:58:43.778Z,22.32
2022-10-14T15:00:45.277Z,22.31
2022-10-14T15:02:46.588Z,22.28
2022-10-14T15:04:48.411Z,22.32
2022-10-14T15:06:51.695Z,22.29
2022-10-14T15:08:53.287Z,22.27
2022-10-14T15:10:54.590Z,22.23
2022-10-14T15:12:55.956Z,22.23
2022-10-14T15:15:00.159Z,22.19
2022-10-14T15:17:01.528Z,22.16
2022-10-14T15:19:02.802Z,22.02
2022-10-14T15:21:04.076Z,21.79
2022-10-14T15:23:05.385Z,21.86
2022-10-14T15:25:06.689Z,21.87
2022-10-14T15:27:07.956Z,21.92
2022-10-14T15:29:09.299Z,21.92
2022-10-14T15:31:10.661Z,21.95
2022-10-14T15:33:12.094Z,21.92
2022-10-14T15:35:13.393Z,21.89
2022-10-14T15:37:14.712Z,21.93
2022-10-14T15:39:16.112Z,21.94
2022-10-14T15:41:17.581Z,22.01
2022-10-14T15:43:18.880Z,22.12
2022-10-14T15:45:20.198Z,21.95
2022-10-14T15:47:21.713Z,21.82
2022-10-14T15:49:23.123Z,21.90
2022-10-14T15:51:24.455Z,21.96
2022-10-14T15:53:25.757Z,21.99
2022-10-14T15:55:27.074Z,21.98
2022-10-14T15:57:28.394Z,21.93
2022-10-14T15:59:30.440Z,21.93
2022-10-14T16:01:31.813Z,21.95
2022-10-14T16:03:37.217Z,21.96
2022-10-14T16:05:42.666Z,22.01
2022-10-14T16:07:45.447Z,22.04
2022-10-14T16:09:47.264Z,22.08
2022-10-14T16:11:49.321Z,21.99
2022-10-14T16:13:50.678Z,21.70
2022-10-14T16:15:51.957Z,21.82
2022-10-14T16:17:53.454Z,21.97
2022-10-14T16:19:54.806Z,22.02
2022-10-14T16:21:56.176Z,22.01
2022-10-14T16:23:58.890Z,21.99
2022-10-14T16:26:03.110Z,21.98
2022-10-14T16:28:09.185Z,21.97
2022-10-14T16:30:11.572Z,22.07
2022-10-14T16:32:13.382Z,22.13
2022-10-14T16:34:14.670Z,22.13
2022-10-14T16:36:15.980Z,22.14
2022-10-14T16:38:17.292Z,22.28
2022-10-14T16:40:18.595Z,22.22
2022-10-14T16:42:22.829Z,22.20
2022-10-14T16:44:27.316Z,22.16
2022-10-14T16:46:47.745Z,22.14
2022-10-14T16:48:49.687Z,22.08
2022-10-14T16:50:57.002Z,22.11
2022-10-14T16:53:16.810Z,22.11
2022-10-14T16:55:18.079Z,22.12
2022-10-14T16:57:19.379Z,22.21
2022-10-14T16:59:20.719Z,22.24
2022-10-14T17:01:22.252Z,22.24
2022-10-14T17:03:23.542Z,22.18
2022-10-14T17:05:25.062Z,21.81
2022-10-14T17:07:26.363Z,21.59
2022-10-14T17:09:27.651Z,21.73
2022-10-14T17:11:29.275Z,21.92
2022-10-14T17:13:30.555Z,21.99
2022-10-14T17:15:31.883Z,22.01
2022-10-14T17:17:33.405Z,22.03
2022-10-14T17:19:37.647Z,22.04
2022-10-14T17:21:39.684Z,22.06
2022-10-14T17:23:43.895Z,22.06
2022-10-14T17:25:46.541Z,22.09
2022-10-14T17:27:47.910Z,22.16
2022-10-14T17:29:49.679Z,22.25
2022-10-14T17:31:50.993Z,22.28
2022-10-14T17:33:52.269Z,22.27
2022-10-14T17:35:53.595Z,22.26
2022-10-14T17:37:54.876Z,21.92
2022-10-14T17:39:56.137Z,21.68
2022-10-14T17:41:57.923Z,21.62
2022-10-14T17:44:00.030Z,21.81
2022-10-14T17:46:02.103Z,21.97
2022-10-14T17:48:03.615Z,22.03
2022-10-14T17:50:08.964Z,22.07
2022-10-14T17:52:11.337Z,22.07
2022-10-14T17:54:12.647Z,22.07
2022-10-14T17:56:13.930Z,22.05
2022-10-14T17:58:15.209Z,22.06
2022-10-14T18:00:16.482Z,22.11
2022-10-14T18:02:17.923Z,22.20
2022-10-14T18:04:22.012Z,22.26
2022-10-14T18:06:23.513Z,22.27
2022-10-14T18:08:25.197Z,22.28
2022-10-14T18:10:26.469Z,22.34
2022-10-14T18:12:27.752Z,22.34
2022-10-14T18:14:29.042Z,22.31
2022-10-14T18:16:33.610Z,22.28
2022-10-14T18:18:38.158Z,22.20
2022-10-14T18:20:39.572Z,22.14
2022-10-14T18:22:40.967Z,22.15
2022-10-14T18:24:43.825Z,22.14
2022-10-14T18:26:45.100Z,22.11
2022-10-14T18:28:46.588Z,22.10
2022-10-14T18:30:47.929Z,22.14
2022-10-14T18:32:49.236Z,22.23
2022-10-14T18:34:50.531Z,22.29
2022-10-14T18:36:51.821Z,22.30
2022-10-14T18:38:53.138Z,22.26
2022-10-14T18:40:54.457Z,22.10
2022-10-14T18:42:58.084Z,21.78
2022-10-14T18:44:59.402Z,21.59
2022-10-14T18:47:00.673Z,21.46
2022-10-14T18:49:02.758Z,21.38
2022-10-14T18:51:04.052Z,21.41
2022-10-14T18:53:05.321Z,21.96
2022-10-14T18:55:09.419Z,21.92
2022-10-14T18:57:14.792Z,21.93
2022-10-14T18:59:16.092Z,21.94
2022-10-14T19:01:17.416Z,21.99
2022-10-14T19:03:18.733Z,22.03
2022-10-14T19:05:20.007Z,22.05
2022-10-14T19:07:21.783Z,22.07
2022-10-14T19:09:28.903Z,22.11
2022-10-14T19:11:30.422Z,22.18
2022-10-14T19:13:31.743Z,22.20
2022-10-14T19:15:45.217Z,22.24
2022-10-14T19:17:54.497Z,22.26
2022-10-14T19:19:56.042Z,22.07
2022-10-14T19:21:59.664Z,21.76
2022-10-14T19:24:00.969Z,21.81
2022-10-14T19:26:02.239Z,21.92
2022-10-14T19:28:03.618Z,21.96
2022-10-14T19:30:04.894Z,22.44
2022-10-14T19:32:09.150Z,22.34
2022-10-14T19:34:10.487Z,22.16
2022-10-14T19:36:11.787Z,22.09
2022-10-14T19:38:13.059Z,22.07
2022-10-14T19:40:14.374Z,22.09
2022-10-14T19:42:15.650Z,22.13
2022-10-14T19:44:17.163Z,22.30
2022-10-14T19:46:18.831Z,22.04
2022-10-14T19:48:20.129Z,21.92
2022-10-14T19:50:21.418Z,22.00
2022-10-14T19:52:22.714Z,22.03
2022-10-14T19:54:23.999Z,22.05
2022-10-14T19:56:28.283Z,22.07
2022-10-14T19:58:29.782Z,22.11
2022-10-14T20:00:31.062Z,22.17
2022-10-14T20:02:32.370Z,22.24
2022-10-14T20:04:33.646Z,22.24
2022-10-14T20:06:35.834Z,22.25
2022-10-14T20:08:37.186Z,22.26
2022-10-14T20:10:38.451Z,22.24
2022-10-14T20:12:39.749Z,22.22
2022-10-14T20:14:41.047Z,22.28
2022-10-14T20:16:42.321Z,22.29
2022-10-14T20:18:43.741Z,22.28
2022-10-14T20:20:45.009Z,22.25
2022-10-14T20:22:46.356Z,22.32
2022-10-14T20:24:50.390Z,22.27
2022-10-14T20:26:51.691Z,22.24
2022-10-14T20:28:54.430Z,22.21
2022-10-14T20:30:57.377Z,22.20
2022-10-14T20:32:58.651Z,22.19
2022-10-14T20:34:59.927Z,22.21
2022-10-14T20:37:01.201Z,22.03
2022-10-14T20:39:02.456Z,21.78
2022-10-14T20:41:04.209Z,21.86
2022-10-14T20:43:05.487Z,22.06
2022-10-14T20:45:06.763Z,22.16
2022-10-14T20:47:08.076Z,22.20
2022-10-14T20:49:09.355Z,22.24
2022-10-14T20:51:10.626Z,22.25
2022-10-14T20:53:12.153Z,22.24
2022-10-14T20:55:13.486Z,22.24
2022-10-14T20:57:14.830Z,22.20
2022-10-14T20:59:16.219Z,22.21
2022-10-14T21:01:17.644Z,22.46
2022-10-14T21:03:18.987Z,22.35
2022-10-14T21:05:20.647Z,22.29
2022-10-14T21:07:22.207Z,22.37
2022-10-14T21:09:23.705Z,22.33
2022-10-14T21:11:25.003Z,22.23
2022-10-14T21:13:26.339Z,22.17
2022-10-14T21:15:27.732Z,22.16
2022-10-14T21:17:29.023Z,22.24
2022-10-14T21:19:30.313Z,22.20
2022-10-14T21:21:31.575Z,22.12
2022-10-14T21:23:32.890Z,22.11
2022-10-14T21:25:34.911Z,22.08
2022-10-14T21:27:36.231Z,22.06
2022-10-14T21:29:37.503Z,22.23
2022-10-14T21:31:40.822Z,21.95
2022-10-14T21:33:42.136Z,20.23
2022-10-14T21:35:43.423Z,19.67
2022-10-14T21:37:44.703Z,20.45
2022-10-14T21:39:46.156Z,20.92
2022-10-14T21:41:47.421Z,21.11
2022-10-14T21:43:48.840Z,21.14
2022-10-14T21:45:50.130Z,21.18
2022-10-14T21:47:53.374Z,21.15
2022-10-14T21:49:55.493Z,21.12
2022-10-14T21:51:56.765Z,21.09
2022-10-14T21:53:58.043Z,21.07
2022-10-14T21:55:59.352Z,21.04
2022-10-14T21:58:00.705Z,21.02
2022-10-14T22:00:02.058Z,21.01
2022-10-14T22:02:03.364Z,20.98
2022-10-14T22:04:04.706Z,20.95
2022-10-14T22:08:12.239Z,20.94
2022-10-14T22:10:32.006Z,20.91
2022-10-14T22:12:33.286Z,20.89
2022-10-14T22:14:34.567Z,20.88
2022-10-14T22:16:35.857Z,20.87
2022-10-14T22:18:37.457Z,20.87
2022-10-14T22:20:38.757Z,20.86
2022-10-14T22:22:40.189Z,20.86
2022-10-14T22:24:41.483Z,20.84
2022-10-14T22:26:42.878Z,20.83
2022-10-14T22:28:44.204Z,20.80
2022-10-14T22:30:45.581Z,20.78
2022-10-14T22:32:46.881Z,20.78
2022-10-14T22:34:48.159Z,20.78
2022-10-14T22:36:49.440Z,20.77
2022-10-14T22:38:50.774Z,20.75
2022-10-14T22:40:52.031Z,20.74
2022-10-14T22:42:54.289Z,20.73
2022-10-14T22:44:55.584Z,20.70
2022-10-14T22:46:56.915Z,20.68
2022-10-14T22:48:58.512Z,20.68
2022-10-14T22:50:59.798Z,20.66
2022-10-14T22:53:01.056Z,20.64
2022-10-14T22:55:02.375Z,20.64
2022-10-14T22:57:03.635Z,20.66
2022-10-14T22:59:04.918Z,20.70
2022-10-14T23:01:06.331Z,20.72
2022-10-14T23:03:07.675Z,20.72
2022-10-14T23:05:09.030Z,20.71
2022-10-14T23:07:10.508Z,20.71
2022-10-14T23:09:11.825Z,20.73
2022-10-14T23:11:13.158Z,20.03
2022-10-14T23:13:14.482Z,20.72
2022-10-14T23:15:15.785Z,20.70
2022-10-14T23:17:17.077Z,20.70
2022-10-14T23:19:18.385Z,20.68
2022-10-14T23:21:22.486Z,20.67
2022-10-14T23:23:23.751Z,20.65
2022-10-14T23:25:25.054Z,20.64
2022-10-14T23:27:26.351Z,20.63
2022-10-14T23:29:27.657Z,20.63
2022-10-14T23:31:28.937Z,20.64
2022-10-14T23:33:30.670Z,20.65
2022-10-14T23:35:32.055Z,20.65
2022-10-14T23:37:33.387Z,20.68
2022-10-14T23:39:34.651Z,20.71
2022-10-14T23:41:36.227Z,20.68
2022-10-14T23:43:37.481Z,20.63
2022-10-14T23:45:38.907Z,20.56
2022-10-14T23:47:40.251Z,20.51
2022-10-14T23:49:41.538Z,20.39
2022-10-14T23:51:42.811Z,20.45
2022-10-14T23:53:44.102Z,20.44
2022-10-14T23:55:45.689Z,20.45
2022-10-14T23:57:46.992Z,20.44
2022-10-14T23:59:48.279Z,20.42
